메인 페이지
METAR-TAF:

METAR-TAF

공항 :

람빵, 타이

위도: 18-17N, 경도: 099-31E, 고도: 241m

현재 날씨관측

예보는 1 시간 4분 전, 03:00시(UTC)에 발표되었습니다.
북북동3kt북서풍과 풍을 오가는
온도 28°C
습도 79%
기압 1010 hPa
시정 10km 이상
고도 1800ft 상공 구름 조금, 타워링 적운.
고도 2500ft 상공 구름 많음

METAR: VTCL 220300Z 03003KT 310V100 9999 FEW018TCU BKN025 28/24 Q1010 NOSIG

시각: 11:04 (04:04 UTC)

예보

예보는 5 시간 4분 전, 23:00시(UTC)에 발표되었습니다.
예보 대상 시간: 22일 00시부터 22일 24시까지 (UTC)
북북동5kt
시정 10km 이상
고도 2500ft 상공 구름 보통
일시적
22일 06시부터 22일 12시까지 (UTC)
15kt, 순간 최대 풍속 25kt
시정: 4000m
고도 2000ft 상공 구름 조금, 적란운.
고도 2500ft 상공 구름 많음
뇌우, 비
일시적
22일 14시부터 22일 18시까지 (UTC)
10kt, 순간 최대 풍속 20kt
시정: 4000m
고도 2000ft 상공 구름 조금, 적란운.
고도 2500ft 상공 구름 많음
뇌우, 비,

TAF: VTCL 212300Z 2200/2224 03005KT 9999 SCT025 TEMPO 2206/2212 17015G25KT 4000 TSRA FEW020CB BKN025 TEMPO 2214/2218 19010G20KT 4000 TSRA FEW020CB BKN025

4,000개 이상의 공항 관측 자료 및 예보 (METAR 및 TAF 보고).

지도상에서 검색 가능한 기상관측소가 노란 점과 빨간 점으로 표시되어 있습니다.

기상관측소 명을 보려면 표시 위로 마우스를 이동하세요.

날씨 관측과 예보를 보려면 클릭하세요.

지도 변경 : 확대하려면 엑스 표시가 있는 녹색 버튼, 축소하려면 빼기 표시가 있는 녹색 버튼, 다음 페이지의 지도를 보려면 녹색 화살표를 클릭하세요.


METAR-TAF: